Time;durP1;ratioP1;P1;durP2;ratioP2;P2;SDS_P1;SDS_P2;PMS_P1;PMS_P2;Temp;Humidity;BMP_temperature;BMP_pressure;BME280_temperature;BME280_humidity;BME280_pressure;Samples;Min_cycle;Max_cycle;Signal;HPM_P1;HPM_P2
2022/10/10 00:00:43;;;;;;;5.45;3.28;;;16.00;69.60;;;;;;5093971;28;20036;-76
2022/10/10 00:03:09;;;;;;;3.97;3.33;;;16.00;69.60;;;;;;5093805;28;20107;-76
2022/10/10 00:05:37;;;;;;;3.05;2.75;;;16.00;69.60;;;;;;5093735;28;20024;-76
2022/10/10 00:08:03;;;;;;;5.88;2.95;;;16.00;69.60;;;;;;5076041;28;20055;-76
2022/10/10 00:10:29;;;;;;;3.85;3.08;;;15.90;69.50;;;;;;5093673;28;20040;-76
2022/10/10 00:12:55;;;;;;;3.38;2.95;;;15.90;69.60;;;;;;5093586;28;20028;-77
2022/10/10 00:15:20;;;;;;;3.35;2.92;;;15.90;69.60;;;;;;5093850;28;20028;-75
2022/10/10 00:17:46;;;;;;;3.95;3.17;;;15.90;69.60;;;;;;5093602;28;20165;-76
2022/10/10 00:20:14;;;;;;;2.92;2.63;;;15.90;69.60;;;;;;5093977;28;20214;-77
2022/10/10 00:22:40;;;;;;;3.05;2.58;;;16.00;69.60;;;;;;5093844;28;20412;-76
2022/10/10 00:25:07;;;;;;;3.85;3.10;;;15.90;69.50;;;;;;5093816;28;20031;-77
2022/10/10 00:27:33;;;;;;;4.63;2.95;;;15.90;69.50;;;;;;5075490;28;20539;-76
2022/10/10 00:29:58;;;;;;;3.97;2.83;;;16.00;69.50;;;;;;5093757;28;20032;-74
2022/10/10 00:32:25;;;;;;;4.13;2.50;;;15.90;69.40;;;;;;5093640;28;20024;-76
2022/10/10 00:34:50;;;;;;;3.85;2.63;;;16.00;69.40;;;;;;5093792;28;20028;-77
2022/10/10 00:37:16;;;;;;;3.58;2.85;;;15.90;69.40;;;;;;5093404;28;20028;-77
2022/10/10 00:39:42;;;;;;;3.67;2.97;;;15.90;69.30;;;;;;5097268;28;20043;-76
2022/10/10 00:42:11;;;;;;;3.10;2.80;;;15.90;69.20;;;;;;5097704;28;20059;-75
2022/10/10 00:44:39;;;;;;;3.45;2.88;;;15.90;69.70;;;;;;5097812;28;20115;-77
2022/10/10 00:47:05;;;;;;;3.42;2.63;;;15.80;69.10;;;;;;5097393;28;20035;-76
2022/10/10 00:49:33;;;;;;;3.13;2.38;;;15.90;69.10;;;;;;5097476;28;20051;-76
2022/10/10 00:51:59;;;;;;;3.00;2.42;;;15.80;69.00;;;;;;5079393;28;20381;-75
2022/10/10 00:54:27;;;;;;;2.85;2.42;;;15.80;69.00;;;;;;5079003;28;20062;-75
2022/10/10 00:57:03;;;;;;;2.70;2.30;;;15.80;69.00;;;;;;5097914;28;20179;-76
2022/10/10 00:59:32;;;;;;;2.83;2.47;;;15.80;69.10;;;;;;5097560;28;20024;-77
2022/10/10 01:01:58;;;;;;;2.83;2.35;;;15.80;69.00;;;;;;5096834;28;20155;-75
2022/10/10 01:04:42;;;;;;;2.97;2.40;;;15.80;69.00;;;;;;5079152;28;20111;-76
2022/10/10 01:07:11;;;;;;;2.45;2.25;;;15.80;68.90;;;;;;5097003;28;20028;-74
2022/10/10 01:09:39;;;;;;;2.58;2.38;;;15.80;68.90;;;;;;5097197;28;20042;-75
2022/10/10 01:12:08;;;;;;;2.40;2.20;;;15.80;68.80;;;;;;5078873;28;20030;-75
2022/10/10 01:15:00;;;;;;;2.58;2.20;;;15.80;68.80;;;;;;5096954;28;20032;-76
2022/10/10 01:17:35;;;;;;;2.00;1.90;;;15.80;68.80;;;;;;5096095;28;20040;-76
2022/10/10 01:20:15;;;;;;;2.30;2.10;;;15.80;68.70;;;;;;5097028;28;20110;-77
2022/10/10 01:22:59;;;;;;;2.20;2.05;;;15.80;68.60;;;;;;5097273;28;20020;-76
2022/10/10 01:25:49;;;;;;;2.50;2.10;;;15.80;68.70;;;;;;5096991;28;20020;-76
2022/10/10 01:28:39;;;;;;;2.85;2.10;;;15.80;68.60;;;;;;5096814;28;20103;-76
2022/10/10 01:31:08;;;;;;;3.58;2.13;;;15.80;68.60;;;;;;5096914;28;20103;-75
2022/10/10 01:34:02;;;;;;;2.28;2.08;;;15.80;68.60;;;;;;5078421;28;20020;-76
2022/10/10 01:37:05;;;;;;;2.20;2.00;;;15.80;68.50;;;;;;5095521;28;20493;-76
2022/10/10 01:39:48;;;;;;;2.25;2.05;;;15.70;68.40;;;;;;5096766;28;20043;-77
2022/10/10 01:42:22;;;;;;;2.85;2.30;;;15.70;68.50;;;;;;5096467;28;20044;-76
2022/10/10 01:44:52;;;;;;;2.15;2.00;;;15.70;68.60;;;;;;5096816;28;20506;-76
2022/10/10 01:47:21;;;;;;;2.15;2.00;;;15.70;68.60;;;;;;5078419;28;20035;-74
2022/10/10 01:49:51;;;;;;;2.40;2.20;;;15.70;68.60;;;;;;5077051;28;20047;-76
2022/10/10 01:52:51;;;;;;;2.30;2.10;;;15.60;68.60;;;;;;5096574;28;20122;-73
2022/10/10 01:55:32;;;;;;;2.13;1.92;;;15.60;68.70;;;;;;5096302;28;20028;-72
2022/10/10 01:58:24;;;;;;;1.90;1.80;;;15.60;68.60;;;;;;5096800;28;20031;-74
2022/10/10 02:01:18;;;;;;;2.13;1.92;;;15.60;69.20;;;;;;5082538;28;20074;-75
2022/10/10 02:03:48;;;;;;;2.45;2.25;;;15.60;68.60;;;;;;5044464;28;20036;-76
2022/10/10 02:06:33;;;;;;;2.05;1.83;;;15.60;68.60;;;;;;5096478;28;20020;-76
2022/10/10 02:09:10;;;;;;;2.38;2.15;;;15.60;68.70;;;;;;5096037;28;20024;-76
2022/10/10 02:11:38;;;;;;;2.05;1.88;;;15.60;68.70;;;;;;5077851;28;20032;-74
2022/10/10 02:14:24;;;;;;;2.75;2.33;;;15.60;68.70;;;;;;5095701;28;20111;-75
2022/10/10 02:16:53;;;;;;;2.95;1.95;;;15.60;68.70;;;;;;5095995;28;20020;-75
2022/10/10 02:19:21;;;;;;;2.50;2.25;;;15.60;68.60;;;;;;5095575;28;20038;-76
2022/10/10 02:21:50;;;;;;;2.92;2.00;;;15.60;68.60;;;;;;5077606;28;20067;-77
2022/10/10 02:24:18;;;;;;;2.10;1.90;;;15.50;68.60;;;;;;5077420;28;20114;-75
2022/10/10 02:26:49;;;;;;;2.33;2.13;;;15.50;68.60;;;;;;5077456;28;20078;-77
2022/10/10 02:29:19;;;;;;;2.28;2.08;;;15.50;68.70;;;;;;5095706;28;20377;-77
2022/10/10 02:32:04;;;;;;;2.17;1.98;;;15.50;68.70;;;;;;5095696;28;20024;-76
2022/10/10 02:34:34;;;;;;;2.20;2.00;;;15.40;68.60;;;;;;5077510;28;20020;-76
2022/10/10 02:37:05;;;;;;;2.13;1.95;;;15.40;68.60;;;;;;5095481;28;20123;-74
2022/10/10 02:39:35;;;;;;;2.50;2.10;;;15.40;68.70;;;;;;5096065;28;20527;-76
2022/10/10 02:42:03;;;;;;;2.30;2.00;;;15.40;68.70;;;;;;5095130;28;20055;-75
2022/10/10 02:44:30;;;;;;;2.20;2.00;;;15.40;68.70;;;;;;5095545;28;20035;-76
2022/10/10 02:46:55;;;;;;;2.05;1.88;;;15.40;68.60;;;;;;5095017;28;20468;-76
2022/10/10 02:49:32;;;;;;;1.70;1.60;;;15.40;68.60;;;;;;5095205;28;20024;-76
2022/10/10 02:51:58;;;;;;;2.45;2.20;;;15.40;68.50;;;;;;5095567;28;20032;-75
2022/10/10 02:54:24;;;;;;;2.20;2.00;;;15.40;68.60;;;;;;5095068;28;20038;-76
2022/10/10 02:56:50;;;;;;;2.00;1.80;;;15.40;68.50;;;;;;5095192;28;20028;-76
2022/10/10 02:59:15;;;;;;;2.20;2.00;;;15.40;68.60;;;;;;5094836;28;20107;-76
2022/10/10 03:01:41;;;;;;;2.38;1.80;;;15.40;68.50;;;;;;5094494;28;20047;-76
2022/10/10 03:04:07;;;;;;;2.47;1.80;;;15.40;68.50;;;;;;5094867;28;20065;-76
2022/10/10 03:06:33;;;;;;;1.83;1.70;;;15.50;68.50;;;;;;5094786;28;20027;-76
2022/10/10 03:08:58;;;;;;;1.98;1.60;;;15.50;68.50;;;;;;5094911;28;20028;-75
2022/10/10 03:11:24;;;;;;;1.70;1.60;;;15.50;68.40;;;;;;5094920;28;20029;-76
2022/10/10 03:13:50;;;;;;;2.85;1.80;;;15.50;68.40;;;;;;5094499;28;20458;-76
2022/10/10 03:16:15;;;;;;;1.92;1.80;;;15.50;68.30;;;;;;5094477;28;20481;-77
2022/10/10 03:18:41;;;;;;;2.17;1.90;;;15.40;68.20;;;;;;5094857;28;20039;-77
2022/10/10 03:21:06;;;;;;;2.10;1.90;;;15.40;68.20;;;;;;5094604;28;20028;-75
2022/10/10 03:23:34;;;;;;;3.35;2.20;;;15.40;68.20;;;;;;5094752;28;20028;-76
2022/10/10 03:26:00;;;;;;;2.42;1.90;;;15.40;68.10;;;;;;5094490;28;20074;-76
2022/10/10 03:28:26;;;;;;;1.90;1.80;;;15.40;68.10;;;;;;5094259;28;20119;-76
2022/10/10 03:30:51;;;;;;;2.00;1.80;;;15.30;68.10;;;;;;5094378;28;20111;-75
2022/10/10 03:33:17;;;;;;;2.00;1.90;;;15.30;68.10;;;;;;5094460;28;20463;-76
2022/10/10 03:35:43;;;;;;;2.00;1.85;;;15.30;68.10;;;;;;5094223;28;20032;-76
2022/10/10 03:38:11;;;;;;;2.15;1.80;;;15.30;68.10;;;;;;5094438;28;20035;-76
2022/10/10 03:40:42;;;;;;;1.77;1.63;;;15.30;68.10;;;;;;5094151;28;20032;-74
2022/10/10 03:43:09;;;;;;;1.73;1.63;;;15.40;68.10;;;;;;5075845;28;20059;-78
2022/10/10 03:45:36;;;;;;;1.80;1.70;;;15.30;68.00;;;;;;5094073;28;20382;-76
2022/10/10 03:48:02;;;;;;;1.80;1.70;;;15.40;68.00;;;;;;5094168;28;20032;-75
2022/10/10 03:50:28;;;;;;;2.28;1.80;;;15.30;67.90;;;;;;5076209;28;20371;-77
2022/10/10 03:52:53;;;;;;;1.75;1.65;;;15.30;67.90;;;;;;5094047;28;20027;-77
2022/10/10 03:55:19;;;;;;;2.05;1.95;;;15.30;68.00;;;;;;5093879;28;20028;-75
2022/10/10 03:57:45;;;;;;;2.05;1.90;;;15.30;68.00;;;;;;5093862;28;20036;-76
2022/10/10 04:00:11;;;;;;;1.83;1.73;;;15.30;68.00;;;;;;5093848;28;20031;-78
2022/10/10 04:02:37;;;;;;;1.90;1.80;;;15.30;67.90;;;;;;5094419;28;20089;-74
2022/10/10 04:05:03;;;;;;;2.03;1.83;;;15.30;67.80;;;;;;5075808;28;20028;-76
2022/10/10 04:07:29;;;;;;;1.85;1.75;;;15.30;67.80;;;;;;5093961;28;20024;-76
2022/10/10 04:09:55;;;;;;;1.60;1.42;;;15.30;67.70;;;;;;5093756;28;20119;-78
2022/10/10 04:12:21;;;;;;;1.95;1.73;;;15.30;67.70;;;;;;5093197;28;20111;-76
2022/10/10 04:14:47;;;;;;;1.85;1.75;;;15.30;67.80;;;;;;5093571;28;20050;-74
2022/10/10 04:17:12;;;;;;;2.03;1.88;;;15.30;67.80;;;;;;5093725;28;20028;-76
2022/10/10 04:19:38;;;;;;;1.55;1.45;;;15.30;67.70;;;;;;5093706;28;20081;-75
2022/10/10 04:22:04;;;;;;;1.75;1.65;;;15.30;67.70;;;;;;5075652;28;20073;-76
2022/10/10 04:24:29;;;;;;;1.83;1.67;;;15.30;67.70;;;;;;5093634;28;20024;-77
2022/10/10 04:26:55;;;;;;;3.45;1.80;;;15.30;67.60;;;;;;5093736;28;20020;-77
2022/10/10 04:29:21;;;;;;;2.13;1.90;;;15.30;67.50;;;;;;5093657;28;20032;-77
2022/10/10 04:31:47;;;;;;;2.47;2.00;;;15.30;67.50;;;;;;5094213;28;20055;-77
2022/10/10 04:34:13;;;;;;;2.67;1.80;;;15.30;67.50;;;;;;5076043;28;20056;-77
2022/10/10 04:36:40;;;;;;;1.95;1.52;;;15.20;67.40;;;;;;5093769;28;20412;-76
2022/10/10 04:39:05;;;;;;;2.47;2.25;;;15.20;67.40;;;;;;5093712;28;20043;-77
2022/10/10 04:41:31;;;;;;;2.78;1.92;;;15.20;67.50;;;;;;5093386;28;20401;-76
2022/10/10 04:43:56;;;;;;;1.90;1.80;;;15.20;67.50;;;;;;5093672;28;20425;-76
2022/10/10 04:46:22;;;;;;;3.38;1.83;;;15.20;68.10;;;;;;5075793;28;20504;-76
2022/10/10 04:48:48;;;;;;;2.17;1.95;;;15.20;67.50;;;;;;5093353;28;20032;-76
2022/10/10 04:51:14;;;;;;;2.33;2.13;;;15.20;67.50;;;;;;5093310;28;20359;-78
2022/10/10 04:53:39;;;;;;;2.10;1.90;;;15.20;67.40;;;;;;5093139;28;20054;-76
2022/10/10 04:56:05;;;;;;;1.70;1.60;;;15.30;67.40;;;;;;5075086;28;20070;-76
2022/10/10 04:58:30;;;;;;;1.88;1.65;;;15.20;67.30;;;;;;5093557;28;20367;-78
2022/10/10 05:00:56;;;;;;;1.90;1.80;;;15.20;67.20;;;;;;5093218;28;20430;-75
2022/10/10 05:03:23;;;;;;;3.88;1.98;;;15.20;67.10;;;;;;5093436;28;20027;-77
2022/10/10 05:05:49;;;;;;;1.65;1.42;;;15.20;67.20;;;;;;5093592;28;20024;-77
2022/10/10 05:08:16;;;;;;;1.80;1.70;;;15.10;67.20;;;;;;5091754;28;20084;-78
2022/10/10 05:10:42;;;;;;;2.00;1.90;;;15.10;67.10;;;;;;5093524;28;20024;-79
2022/10/10 05:13:12;;;;;;;2.30;1.75;;;15.10;67.10;;;;;;5093305;28;20030;-75
2022/10/10 05:15:38;;;;;;;2.13;1.90;;;15.00;67.00;;;;;;5092199;28;20020;-75
2022/10/10 05:18:04;;;;;;;2.22;2.00;;;15.00;67.10;;;;;;5074822;28;20039;-75
2022/10/10 05:20:32;;;;;;;3.50;1.80;;;14.90;67.00;;;;;;5092777;28;20020;-75
2022/10/10 05:22:58;;;;;;;1.92;1.80;;;14.90;67.10;;;;;;5091930;28;20492;-77
2022/10/10 05:25:24;;;;;;;3.72;1.98;;;14.90;67.10;;;;;;5076932;28;20122;-74
2022/10/10 05:27:50;;;;;;;2.25;2.05;;;14.90;67.10;;;;;;5078042;28;20458;-77
2022/10/10 05:30:16;;;;;;;1.77;1.67;;;14.80;67.10;;;;;;5096286;28;20101;-77
2022/10/10 05:32:42;;;;;;;3.53;1.92;;;14.80;67.10;;;;;;5077871;28;20024;-76
2022/10/10 05:35:07;;;;;;;1.98;1.88;;;14.80;67.10;;;;;;5078189;28;20032;-78
2022/10/10 05:37:33;;;;;;;1.70;1.60;;;14.80;67.00;;;;;;5077548;28;20118;-77
2022/10/10 05:39:59;;;;;;;1.67;1.58;;;14.80;67.10;;;;;;5095231;28;20035;-76
2022/10/10 05:42:25;;;;;;;1.83;1.73;;;14.80;67.00;;;;;;5094592;28;20172;-73
2022/10/10 05:44:50;;;;;;;1.90;1.80;;;14.70;66.90;;;;;;5095089;28;20526;-76
2022/10/10 05:47:16;;;;;;;1.67;1.58;;;14.70;67.00;;;;;;5094124;28;20073;-78
2022/10/10 05:49:42;;;;;;;2.00;1.70;;;14.70;67.10;;;;;;5094096;28;20111;-75
2022/10/10 05:52:08;;;;;;;2.47;2.00;;;14.70;67.00;;;;;;5094529;28;20024;-76
2022/10/10 05:54:34;;;;;;;2.03;1.80;;;14.70;67.00;;;;;;5076861;28;20386;-77
2022/10/10 05:56:59;;;;;;;2.00;1.90;;;14.70;66.90;;;;;;5095788;28;20036;-78
2022/10/10 05:59:26;;;;;;;2.75;1.70;;;14.70;66.90;;;;;;5095316;28;20114;-78
2022/10/10 06:01:52;;;;;;;1.90;1.80;;;14.70;66.80;;;;;;5094707;28;20031;-76
2022/10/10 06:04:18;;;;;;;2.03;1.80;;;14.70;66.90;;;;;;5094314;28;20484;-75
2022/10/10 06:06:43;;;;;;;3.15;1.98;;;14.70;66.90;;;;;;5098757;28;20051;-78
2022/10/10 06:09:09;;;;;;;1.83;1.70;;;14.60;66.90;;;;;;5076827;28;20112;-76
2022/10/10 06:11:35;;;;;;;2.10;1.90;;;14.60;67.00;;;;;;5075629;28;20584;-75
2022/10/10 06:14:01;;;;;;;1.95;1.73;;;14.60;67.00;;;;;;5094144;28;20032;-75
2022/10/10 06:16:27;;;;;;;2.67;1.90;;;14.60;66.90;;;;;;5093411;28;20028;-76
2022/10/10 06:18:53;;;;;;;1.90;1.80;;;14.60;66.80;;;;;;5075667;28;20122;-73
2022/10/10 06:21:19;;;;;;;1.70;1.60;;;14.60;66.80;;;;;;5094095;28;20496;-71
2022/10/10 06:23:44;;;;;;;1.80;1.70;;;14.60;66.80;;;;;;5093103;28;20020;-71
2022/10/10 06:26:11;;;;;;;2.25;1.85;;;14.60;66.80;;;;;;5093818;28;20394;-70
2022/10/10 06:28:36;;;;;;;1.80;1.70;;;14.60;66.70;;;;;;5093145;28;20111;-70
2022/10/10 06:31:05;;;;;;;2.28;2.05;;;14.60;66.70;;;;;;5093409;28;20104;-73
2022/10/10 06:33:31;;;;;;;4.72;1.90;;;14.60;66.70;;;;;;5075488;28;20476;-72
2022/10/10 06:35:57;;;;;;;2.00;1.90;;;14.60;66.70;;;;;;5092515;28;20024;-71
2022/10/10 06:38:23;;;;;;;1.73;1.63;;;14.60;66.60;;;;;;5090495;28;20118;-70
2022/10/10 06:40:49;;;;;;;2.00;1.63;;;14.50;66.60;;;;;;5094330;28;20028;-73
2022/10/10 06:43:16;;;;;;;1.42;1.33;;;14.60;66.60;;;;;;5092853;28;20071;-73
2022/10/10 06:45:44;;;;;;;1.70;1.60;;;14.60;66.50;;;;;;5074846;28;20032;-72
2022/10/10 06:48:11;;;;;;;1.90;1.80;;;14.60;66.50;;;;;;5093054;28;20040;-74
